メインページ
METAR-TAF:

METAR-TAF

空港 :

ジンナー国際空港

カラチ, パキスタン

緯度: 24-54N, 経度: 067-08E, 海抜: 21m

現時点の気象観測

当レポートは32分前の22:25(UTC)に作成
南西の風 8kt
気温 29°C
湿度 74%
気圧 1000 hPa
視程: 6000m
高度2000ftの雲は散在している

METAR: OPKC 182225Z 23008KT 6000 SCT020 29/24 Q1000 NOSIG

時間: 03:57 (22:57 UTC)

予報

当レポートは6時間57分前の16:00(UTC)に作成
予報は18日の 18時(UTC)から 19日の 24時(UTC)まで有効
西/南西の風 10kt、最大20ktの突風を伴う
視程: 6000m
高度2000ftの千切れ雲あり
19日の 0800時(UTC)から
南西の風 12kt、最大22ktの突風を伴う
視程: 5000m
高度2000ftの雲は散在している
煙霧
19日の 1500時(UTC)から
西/南西の風 8kt、最大18ktの突風を伴う
視程: 6000m
高度2000ftの雲は散在している

TAF: OPKC 181600Z 1818/1924 24010G20KT 6000 BKN020 FM190800 23012G22KT 5000 HZ SCT020 FM191500 24008G18KT 6000 SCT020

4,000以上の空港の気象観測と天気予報(METAR報とTAF報)

利用可能な観測所は地図上に黄色い丸と赤い丸で示す。

丸の上にカーソルを重ねると観測所名を参照できる。

次にクリックすると気象観測と天気予報を参照できる。

マップの切り替え:黒色「×」印の緑ボタンをクリックして拡大、「-」印の緑ボタンをクリックして縮小、緑色の三角印をクリックして隣りの地図に切り替え


METAR-TAF: